sensor_id;sensor_type;location;lat;lon;timestamp;P1;durP1;ratioP1;P2;durP2;ratioP2
68484;SDS011;55472;50.060;21.960;2023-02-28T00:01:28;34.17;;;9.73;;
68484;SDS011;55472;50.060;21.960;2023-02-28T00:03:55;26.55;;;9.20;;
68484;SDS011;55472;50.060;21.960;2023-02-28T00:06:22;32.53;;;9.68;;
68484;SDS011;55472;50.060;21.960;2023-02-28T00:08:49;24.20;;;8.35;;
68484;SDS011;55472;50.060;21.960;2023-02-28T00:11:16;27.53;;;8.80;;
68484;SDS011;55472;50.060;21.960;2023-02-28T00:13:44;29.50;;;8.50;;
68484;SDS011;55472;50.060;21.960;2023-02-28T00:16:13;26.25;;;8.52;;
68484;SDS011;55472;50.060;21.960;2023-02-28T00:18:43;28.23;;;8.40;;
68484;SDS011;55472;50.060;21.960;2023-02-28T00:21:10;26.77;;;8.23;;
68484;SDS011;55472;50.060;21.960;2023-02-28T00:23:37;24.03;;;7.80;;
68484;SDS011;55472;50.060;21.960;2023-02-28T00:26:03;25.75;;;8.55;;
68484;SDS011;55472;50.060;21.960;2023-02-28T00:28:30;27.27;;;8.10;;
68484;SDS011;55472;50.060;21.960;2023-02-28T00:30:56;23.35;;;7.82;;
68484;SDS011;55472;50.060;21.960;2023-02-28T00:33:23;22.30;;;7.78;;
68484;SDS011;55472;50.060;21.960;2023-02-28T00:35:49;25.90;;;7.93;;
68484;SDS011;55472;50.060;21.960;2023-02-28T00:38:15;25.23;;;7.78;;
68484;SDS011;55472;50.060;21.960;2023-02-28T00:40:42;22.20;;;7.68;;
68484;SDS011;55472;50.060;21.960;2023-02-28T00:43:08;28.75;;;8.00;;
68484;SDS011;55472;50.060;21.960;2023-02-28T00:45:34;24.80;;;7.90;;
68484;SDS011;55472;50.060;21.960;2023-02-28T00:48:01;26.37;;;7.63;;
68484;SDS011;55472;50.060;21.960;2023-02-28T00:50:27;22.67;;;7.75;;
68484;SDS011;55472;50.060;21.960;2023-02-28T00:52:53;24.38;;;7.72;;
68484;SDS011;55472;50.060;21.960;2023-02-28T00:55:19;22.30;;;7.88;;
68484;SDS011;55472;50.060;21.960;2023-02-28T00:57:46;26.60;;;8.50;;
68484;SDS011;55472;50.060;21.960;2023-02-28T01:00:12;20.13;;;7.27;;
68484;SDS011;55472;50.060;21.960;2023-02-28T01:02:39;26.45;;;8.57;;
68484;SDS011;55472;50.060;21.960;2023-02-28T01:05:05;24.60;;;7.68;;
68484;SDS011;55472;50.060;21.960;2023-02-28T01:07:32;23.17;;;7.10;;
68484;SDS011;55472;50.060;21.960;2023-02-28T01:09:58;22.25;;;7.93;;
68484;SDS011;55472;50.060;21.960;2023-02-28T01:12:24;28.93;;;7.80;;
68484;SDS011;55472;50.060;21.960;2023-02-28T01:14:50;18.75;;;7.18;;
68484;SDS011;55472;50.060;21.960;2023-02-28T01:17:17;28.35;;;7.93;;
68484;SDS011;55472;50.060;21.960;2023-02-28T01:19:43;24.33;;;7.70;;
68484;SDS011;55472;50.060;21.960;2023-02-28T01:22:09;26.55;;;8.48;;
68484;SDS011;55472;50.060;21.960;2023-02-28T01:24:35;19.50;;;7.00;;
68484;SDS011;55472;50.060;21.960;2023-02-28T01:27:03;24.90;;;8.05;;
68484;SDS011;55472;50.060;21.960;2023-02-28T01:29:29;32.17;;;7.70;;
68484;SDS011;55472;50.060;21.960;2023-02-28T01:31:55;26.70;;;7.82;;
68484;SDS011;55472;50.060;21.960;2023-02-28T01:34:22;27.77;;;8.02;;
68484;SDS011;55472;50.060;21.960;2023-02-28T01:36:48;25.43;;;8.50;;
68484;SDS011;55472;50.060;21.960;2023-02-28T01:39:14;29.55;;;8.63;;
68484;SDS011;55472;50.060;21.960;2023-02-28T01:41:41;26.48;;;7.97;;
68484;SDS011;55472;50.060;21.960;2023-02-28T01:47:34;29.73;;;8.43;;
68484;SDS011;55472;50.060;21.960;2023-02-28T01:50:06;25.93;;;8.07;;
68484;SDS011;55472;50.060;21.960;2023-02-28T01:52:36;28.63;;;8.10;;
68484;SDS011;55472;50.060;21.960;2023-02-28T01:55:03;26.58;;;7.47;;
68484;SDS011;55472;50.060;21.960;2023-02-28T01:57:33;22.63;;;8.40;;
68484;SDS011;55472;50.060;21.960;2023-02-28T02:00:05;22.80;;;7.50;;
68484;SDS011;55472;50.060;21.960;2023-02-28T02:02:35;21.03;;;7.50;;
68484;SDS011;55472;50.060;21.960;2023-02-28T02:05:06;27.77;;;7.65;;
68484;SDS011;55472;50.060;21.960;2023-02-28T02:07:37;28.73;;;8.18;;
68484;SDS011;55472;50.060;21.960;2023-02-28T02:10:10;27.27;;;7.93;;
68484;SDS011;55472;50.060;21.960;2023-02-28T02:15:39;22.07;;;7.80;;
68484;SDS011;55472;50.060;21.960;2023-02-28T02:21:16;24.95;;;7.97;;
68484;SDS011;55472;50.060;21.960;2023-02-28T02:24:29;27.02;;;8.98;;
68484;SDS011;55472;50.060;21.960;2023-02-28T02:32:27;33.47;;;7.95;;
68484;SDS011;55472;50.060;21.960;2023-02-28T02:40:34;27.75;;;8.30;;
68484;SDS011;55472;50.060;21.960;2023-02-28T02:45:52;26.67;;;8.65;;
68484;SDS011;55472;50.060;21.960;2023-02-28T02:48:25;21.10;;;7.95;;
68484;SDS011;55472;50.060;21.960;2023-02-28T02:50:55;29.38;;;8.40;;
68484;SDS011;55472;50.060;21.960;2023-02-28T02:53:32;23.83;;;7.45;;
68484;SDS011;55472;50.060;21.960;2023-02-28T02:56:05;24.43;;;7.27;;
68484;SDS011;55472;50.060;21.960;2023-02-28T02:58:34;20.23;;;7.60;;
68484;SDS011;55472;50.060;21.960;2023-02-28T03:01:08;22.70;;;8.07;;
68484;SDS011;55472;50.060;21.960;2023-02-28T03:03:40;20.52;;;7.63;;
68484;SDS011;55472;50.060;21.960;2023-02-28T03:06:07;23.17;;;7.85;;
68484;SDS011;55472;50.060;21.960;2023-02-28T03:08:35;26.10;;;7.90;;
68484;SDS011;55472;50.060;21.960;2023-02-28T03:11:04;20.73;;;6.85;;
68484;SDS011;55472;50.060;21.960;2023-02-28T03:17:24;20.33;;;6.45;;
68484;SDS011;55472;50.060;21.960;2023-02-28T03:22:54;18.70;;;6.63;;
68484;SDS011;55472;50.060;21.960;2023-02-28T03:28:15;16.50;;;5.68;;
68484;SDS011;55472;50.060;21.960;2023-02-28T03:36:31;23.07;;;6.93;;
68484;SDS011;55472;50.060;21.960;2023-02-28T03:39:43;21.35;;;6.53;;
68484;SDS011;55472;50.060;21.960;2023-02-28T03:42:29;21.02;;;7.20;;
68484;SDS011;55472;50.060;21.960;2023-02-28T03:45:00;22.00;;;7.45;;
68484;SDS011;55472;50.060;21.960;2023-02-28T03:53:12;22.95;;;8.07;;
68484;SDS011;55472;50.060;21.960;2023-02-28T03:55:45;23.40;;;8.02;;
68484;SDS011;55472;50.060;21.960;2023-02-28T04:01:39;21.35;;;7.72;;
68484;SDS011;55472;50.060;21.960;2023-02-28T04:04:09;25.90;;;7.67;;
68484;SDS011;55472;50.060;21.960;2023-02-28T04:06:36;18.38;;;6.95;;
68484;SDS011;55472;50.060;21.960;2023-02-28T04:09:04;20.67;;;6.43;;
68484;SDS011;55472;50.060;21.960;2023-02-28T04:14:03;24.65;;;7.35;;
68484;SDS011;55472;50.060;21.960;2023-02-28T04:16:31;20.60;;;7.10;;
68484;SDS011;55472;50.060;21.960;2023-02-28T04:18:58;21.90;;;7.13;;
68484;SDS011;55472;50.060;21.960;2023-02-28T04:21:32;19.58;;;6.00;;
68484;SDS011;55472;50.060;21.960;2023-02-28T04:24:04;19.95;;;6.00;;
68484;SDS011;55472;50.060;21.960;2023-02-28T04:26:33;21.02;;;5.95;;
68484;SDS011;55472;50.060;21.960;2023-02-28T04:29:03;26.63;;;6.20;;
68484;SDS011;55472;50.060;21.960;2023-02-28T04:31:31;21.60;;;6.38;;
68484;SDS011;55472;50.060;21.960;2023-02-28T04:33:57;19.10;;;6.07;;
68484;SDS011;55472;50.060;21.960;2023-02-28T04:36:23;24.92;;;7.43;;
68484;SDS011;55472;50.060;21.960;2023-02-28T04:38:50;20.00;;;6.20;;
68484;SDS011;55472;50.060;21.960;2023-02-28T04:41:16;17.90;;;5.93;;
68484;SDS011;55472;50.060;21.960;2023-02-28T04:43:44;18.65;;;6.13;;
68484;SDS011;55472;50.060;21.960;2023-02-28T04:46:10;13.77;;;5.10;;
68484;SDS011;55472;50.060;21.960;2023-02-28T04:48:37;17.98;;;6.40;;
68484;SDS011;55472;50.060;21.960;2023-02-28T04:51:06;20.05;;;6.40;;
68484;SDS011;55472;50.060;21.960;2023-02-28T04:53:38;17.33;;;5.93;;
68484;SDS011;55472;50.060;21.960;2023-02-28T04:56:06;21.83;;;6.57;;
68484;SDS011;55472;50.060;21.960;2023-02-28T04:58:34;19.10;;;5.97;;
68484;SDS011;55472;50.060;21.960;2023-02-28T05:01:04;24.48;;;7.38;;
68484;SDS011;55472;50.060;21.960;2023-02-28T05:03:41;19.08;;;6.38;;
68484;SDS011;55472;50.060;21.960;2023-02-28T05:06:09;16.97;;;6.27;;
68484;SDS011;55472;50.060;21.960;2023-02-28T05:08:37;16.67;;;5.60;;
68484;SDS011;55472;50.060;21.960;2023-02-28T05:11:06;18.85;;;5.20;;
68484;SDS011;55472;50.060;21.960;2023-02-28T05:13:43;16.13;;;5.65;;
68484;SDS011;55472;50.060;21.960;2023-02-28T05:16:10;15.15;;;5.13;;
68484;SDS011;55472;50.060;21.960;2023-02-28T05:18:36;17.47;;;5.57;;
68484;SDS011;55472;50.060;21.960;2023-02-28T05:21:03;11.18;;;4.50;;
68484;SDS011;55472;50.060;21.960;2023-02-28T05:23:30;12.68;;;5.28;;
68484;SDS011;55472;50.060;21.960;2023-02-28T05:25:56;17.23;;;6.10;;
68484;SDS011;55472;50.060;21.960;2023-02-28T05:28:22;18.45;;;6.07;;
68484;SDS011;55472;50.060;21.960;2023-02-28T05:30:49;21.53;;;6.13;;
68484;SDS011;55472;50.060;21.960;2023-02-28T05:33:15;14.80;;;5.50;;
68484;SDS011;55472;50.060;21.960;2023-02-28T05:35:41;18.00;;;6.05;;
68484;SDS011;55472;50.060;21.960;2023-02-28T05:38:07;15.57;;;5.72;;
68484;SDS011;55472;50.060;21.960;2023-02-28T05:40:34;17.83;;;6.15;;
68484;SDS011;55472;50.060;21.960;2023-02-28T05:43:00;20.77;;;7.73;;
68484;SDS011;55472;50.060;21.960;2023-02-28T05:45:27;19.27;;;6.90;;
68484;SDS011;55472;50.060;21.960;2023-02-28T05:47:53;21.20;;;6.45;;
68484;SDS011;55472;50.060;21.960;2023-02-28T05:50:21;18.77;;;6.90;;
68484;SDS011;55472;50.060;21.960;2023-02-28T05:52:50;18.30;;;6.30;;
68484;SDS011;55472;50.060;21.960;2023-02-28T05:55:17;15.10;;;5.53;;
68484;SDS011;55472;50.060;21.960;2023-02-28T05:57:43;13.80;;;5.80;;
68484;SDS011;55472;50.060;21.960;2023-02-28T06:00:10;17.42;;;6.30;;
68484;SDS011;55472;50.060;21.960;2023-02-28T06:02:38;16.45;;;5.70;;
68484;SDS011;55472;50.060;21.960;2023-02-28T06:05:10;15.75;;;6.10;;
68484;SDS011;55472;50.060;21.960;2023-02-28T06:07:43;21.47;;;6.87;;
68484;SDS011;55472;50.060;21.960;2023-02-28T06:10:10;17.98;;;6.20;;
68484;SDS011;55472;50.060;21.960;2023-02-28T06:12:37;19.98;;;6.45;;
68484;SDS011;55472;50.060;21.960;2023-02-28T06:15:04;28.65;;;6.57;;
68484;SDS011;55472;50.060;21.960;2023-02-28T06:17:31;20.00;;;6.57;;
68484;SDS011;55472;50.060;21.960;2023-02-28T06:19:57;27.30;;;7.37;;
68484;SDS011;55472;50.060;21.960;2023-02-28T06:22:23;22.23;;;7.15;;
68484;SDS011;55472;50.060;21.960;2023-02-28T06:24:50;37.95;;;10.20;;
68484;SDS011;55472;50.060;21.960;2023-02-28T06:27:17;49.60;;;14.13;;
68484;SDS011;55472;50.060;21.960;2023-02-28T06:29:45;67.68;;;15.98;;
68484;SDS011;55472;50.060;21.960;2023-02-28T06:32:11;123.03;;;30.67;;
68484;SDS011;55472;50.060;21.960;2023-02-28T06:34:37;109.05;;;30.40;;
68484;SDS011;55472;50.060;21.960;2023-02-28T06:37:03;86.03;;;24.92;;
68484;SDS011;55472;50.060;21.960;2023-02-28T06:39:30;63.58;;;17.58;;
68484;SDS011;55472;50.060;21.960;2023-02-28T06:41:57;54.40;;;14.82;;
68484;SDS011;55472;50.060;21.960;2023-02-28T06:44:23;52.83;;;14.47;;
68484;SDS011;55472;50.060;21.960;2023-02-28T06:46:50;44.13;;;10.68;;
68484;SDS011;55472;50.060;21.960;2023-02-28T06:49:16;39.38;;;11.25;;
68484;SDS011;55472;50.060;21.960;2023-02-28T06:51:43;32.65;;;9.45;;
68484;SDS011;55472;50.060;21.960;2023-02-28T06:54:13;40.15;;;13.43;;
68484;SDS011;55472;50.060;21.960;2023-02-28T06:56:39;27.30;;;10.13;;
68484;SDS011;55472;50.060;21.960;2023-02-28T06:59:05;33.58;;;9.43;;
68484;SDS011;55472;50.060;21.960;2023-02-28T07:01:31;26.67;;;8.90;;
68484;SDS011;55472;50.060;21.960;2023-02-28T07:03:59;23.52;;;8.57;;
68484;SDS011;55472;50.060;21.960;2023-02-28T07:06:26;27.13;;;9.63;;
68484;SDS011;55472;50.060;21.960;2023-02-28T07:08:53;27.67;;;10.47;;
68484;SDS011;55472;50.060;21.960;2023-02-28T07:11:20;25.05;;;9.75;;
68484;SDS011;55472;50.060;21.960;2023-02-28T07:13:54;29.52;;;9.45;;
68484;SDS011;55472;50.060;21.960;2023-02-28T07:16:22;28.85;;;9.10;;
68484;SDS011;55472;50.060;21.960;2023-02-28T07:18:49;24.08;;;8.68;;
68484;SDS011;55472;50.060;21.960;2023-02-28T07:21:19;27.83;;;9.17;;
68484;SDS011;55472;50.060;21.960;2023-02-28T07:23:45;28.38;;;8.07;;
68484;SDS011;55472;50.060;21.960;2023-02-28T07:26:13;19.40;;;7.50;;
68484;SDS011;55472;50.060;21.960;2023-02-28T07:28:42;24.60;;;7.45;;
68484;SDS011;55472;50.060;21.960;2023-02-28T07:31:11;21.10;;;7.55;;
68484;SDS011;55472;50.060;21.960;2023-02-28T07:33:39;24.57;;;8.43;;
68484;SDS011;55472;50.060;21.960;2023-02-28T07:36:07;21.52;;;8.00;;
68484;SDS011;55472;50.060;21.960;2023-02-28T07:38:43;23.08;;;8.38;;
68484;SDS011;55472;50.060;21.960;2023-02-28T07:41:15;24.13;;;7.05;;
68484;SDS011;55472;50.060;21.960;2023-02-28T07:43:44;18.58;;;6.10;;
68484;SDS011;55472;50.060;21.960;2023-02-28T07:46:11;18.73;;;5.97;;
68484;SDS011;55472;50.060;21.960;2023-02-28T07:48:40;17.02;;;5.85;;
68484;SDS011;55472;50.060;21.960;2023-02-28T07:51:07;20.50;;;7.15;;
68484;SDS011;55472;50.060;21.960;2023-02-28T07:53:34;35.60;;;13.35;;
68484;SDS011;55472;50.060;21.960;2023-02-28T07:56:01;14.10;;;5.25;;
68484;SDS011;55472;50.060;21.960;2023-02-28T07:58:29;13.63;;;4.17;;
68484;SDS011;55472;50.060;21.960;2023-02-28T08:00:56;14.75;;;5.60;;
68484;SDS011;55472;50.060;21.960;2023-02-28T08:03:23;9.68;;;3.95;;
68484;SDS011;55472;50.060;21.960;2023-02-28T08:05:50;11.77;;;4.28;;
68484;SDS011;55472;50.060;21.960;2023-02-28T08:08:18;11.00;;;4.10;;
68484;SDS011;55472;50.060;21.960;2023-02-28T08:10:44;12.00;;;3.47;;
68484;SDS011;55472;50.060;21.960;2023-02-28T08:13:10;11.70;;;4.32;;
68484;SDS011;55472;50.060;21.960;2023-02-28T08:15:36;12.82;;;4.72;;
68484;SDS011;55472;50.060;21.960;2023-02-28T08:18:02;11.43;;;4.70;;
68484;SDS011;55472;50.060;21.960;2023-02-28T08:20:29;13.93;;;4.72;;
68484;SDS011;55472;50.060;21.960;2023-02-28T08:22:56;11.43;;;4.20;;
68484;SDS011;55472;50.060;21.960;2023-02-28T08:25:22;17.08;;;5.40;;
68484;SDS011;55472;50.060;21.960;2023-02-28T08:27:50;13.52;;;5.43;;
68484;SDS011;55472;50.060;21.960;2023-02-28T08:30:17;15.23;;;5.40;;
68484;SDS011;55472;50.060;21.960;2023-02-28T08:32:43;15.20;;;5.75;;
68484;SDS011;55472;50.060;21.960;2023-02-28T08:35:09;13.10;;;5.17;;
68484;SDS011;55472;50.060;21.960;2023-02-28T08:37:36;11.90;;;4.45;;
68484;SDS011;55472;50.060;21.960;2023-02-28T08:40:02;11.48;;;4.57;;
68484;SDS011;55472;50.060;21.960;2023-02-28T08:42:29;11.32;;;4.45;;
68484;SDS011;55472;50.060;21.960;2023-02-28T08:44:55;13.00;;;4.47;;
68484;SDS011;55472;50.060;21.960;2023-02-28T08:47:22;9.67;;;4.20;;
68484;SDS011;55472;50.060;21.960;2023-02-28T08:49:48;11.27;;;3.67;;
68484;SDS011;55472;50.060;21.960;2023-02-28T08:52:14;11.82;;;4.65;;
68484;SDS011;55472;50.060;21.960;2023-02-28T08:54:40;9.93;;;4.20;;
68484;SDS011;55472;50.060;21.960;2023-02-28T08:57:07;8.70;;;3.80;;
68484;SDS011;55472;50.060;21.960;2023-02-28T08:59:33;8.40;;;4.10;;
68484;SDS011;55472;50.060;21.960;2023-02-28T09:01:59;11.02;;;4.05;;
68484;SDS011;55472;50.060;21.960;2023-02-28T09:04:25;9.43;;;3.72;;
68484;SDS011;55472;50.060;21.960;2023-02-28T09:06:52;10.52;;;3.83;;
68484;SDS011;55472;50.060;21.960;2023-02-28T09:09:18;9.68;;;3.90;;
68484;SDS011;55472;50.060;21.960;2023-02-28T09:11:44;10.20;;;3.97;;
68484;SDS011;55472;50.060;21.960;2023-02-28T09:14:10;13.95;;;4.10;;
68484;SDS011;55472;50.060;21.960;2023-02-28T09:16:37;10.23;;;3.70;;
68484;SDS011;55472;50.060;21.960;2023-02-28T09:19:03;9.55;;;4.10;;
68484;SDS011;55472;50.060;21.960;2023-02-28T09:21:29;10.38;;;4.13;;
68484;SDS011;55472;50.060;21.960;2023-02-28T09:23:55;11.20;;;4.80;;
68484;SDS011;55472;50.060;21.960;2023-02-28T09:26:25;11.57;;;4.55;;
68484;SDS011;55472;50.060;21.960;2023-02-28T09:28:53;9.57;;;4.40;;
68484;SDS011;55472;50.060;21.960;2023-02-28T09:31:21;10.57;;;4.53;;
68484;SDS011;55472;50.060;21.960;2023-02-28T09:33:52;9.50;;;4.70;;
68484;SDS011;55472;50.060;21.960;2023-02-28T09:36:22;10.37;;;4.47;;
68484;SDS011;55472;50.060;21.960;2023-02-28T09:38:49;11.07;;;4.88;;
68484;SDS011;55472;50.060;21.960;2023-02-28T09:41:27;10.13;;;4.90;;
68484;SDS011;55472;50.060;21.960;2023-02-28T09:44:05;10.10;;;5.20;;
68484;SDS011;55472;50.060;21.960;2023-02-28T09:46:43;10.88;;;5.00;;
68484;SDS011;55472;50.060;21.960;2023-02-28T09:49:16;11.23;;;5.03;;
68484;SDS011;55472;50.060;21.960;2023-02-28T09:52:06;10.52;;;5.25;;
68484;SDS011;55472;50.060;21.960;2023-02-28T09:54:41;11.00;;;5.40;;
68484;SDS011;55472;50.060;21.960;2023-02-28T10:03:01;10.93;;;4.67;;
68484;SDS011;55472;50.060;21.960;2023-02-28T10:06:01;15.10;;;5.63;;
68484;SDS011;55472;50.060;21.960;2023-02-28T10:11:22;15.23;;;5.75;;
68484;SDS011;55472;50.060;21.960;2023-02-28T10:13:59;11.00;;;4.90;;
68484;SDS011;55472;50.060;21.960;2023-02-28T10:16:33;10.17;;;4.47;;
68484;SDS011;55472;50.060;21.960;2023-02-28T10:19:13;12.07;;;5.03;;
68484;SDS011;55472;50.060;21.960;2023-02-28T10:21:49;11.63;;;4.47;;
68484;SDS011;55472;50.060;21.960;2023-02-28T10:24:54;10.23;;;4.38;;
68484;SDS011;55472;50.060;21.960;2023-02-28T10:27:31;11.23;;;4.50;;
68484;SDS011;55472;50.060;21.960;2023-02-28T10:29:59;11.97;;;4.43;;
68484;SDS011;55472;50.060;21.960;2023-02-28T10:32:29;10.35;;;4.32;;
68484;SDS011;55472;50.060;21.960;2023-02-28T10:35:00;10.65;;;4.07;;
68484;SDS011;55472;50.060;21.960;2023-02-28T10:37:45;11.05;;;4.32;;
68484;SDS011;55472;50.060;21.960;2023-02-28T10:42:55;11.97;;;4.23;;
68484;SDS011;55472;50.060;21.960;2023-02-28T10:45:53;10.93;;;3.97;;
68484;SDS011;55472;50.060;21.960;2023-02-28T10:48:38;11.18;;;3.60;;
68484;SDS011;55472;50.060;21.960;2023-02-28T10:51:11;9.02;;;3.90;;
68484;SDS011;55472;50.060;21.960;2023-02-28T11:07:09;11.32;;;4.40;;
68484;SDS011;55472;50.060;21.960;2023-02-28T11:09:46;10.03;;;4.30;;
68484;SDS011;55472;50.060;21.960;2023-02-28T11:14:52;10.30;;;4.30;;
68484;SDS011;55472;50.060;21.960;2023-02-28T11:17:27;10.95;;;4.32;;
68484;SDS011;55472;50.060;21.960;2023-02-28T11:20:05;11.43;;;4.85;;
68484;SDS011;55472;50.060;21.960;2023-02-28T11:22:44;9.63;;;3.87;;
68484;SDS011;55472;50.060;21.960;2023-02-28T11:25:21;9.82;;;4.25;;
68484;SDS011;55472;50.060;21.960;2023-02-28T11:27:54;10.23;;;3.90;;
68484;SDS011;55472;50.060;21.960;2023-02-28T11:33:00;9.00;;;4.28;;
68484;SDS011;55472;50.060;21.960;2023-02-28T11:35:57;7.47;;;3.53;;
68484;SDS011;55472;50.060;21.960;2023-02-28T11:38:30;9.68;;;4.28;;
68484;SDS011;55472;50.060;21.960;2023-02-28T11:46:52;10.27;;;4.63;;
68484;SDS011;55472;50.060;21.960;2023-02-28T11:49:37;14.53;;;5.93;;
68484;SDS011;55472;50.060;21.960;2023-02-28T11:55:16;11.55;;;4.95;;
68484;SDS011;55472;50.060;21.960;2023-02-28T12:00:33;14.38;;;5.88;;
68484;SDS011;55472;50.060;21.960;2023-02-28T12:03:52;11.33;;;4.67;;
68484;SDS011;55472;50.060;21.960;2023-02-28T12:06:15;11.75;;;5.50;;
68484;SDS011;55472;50.060;21.960;2023-02-28T12:11:56;12.45;;;4.78;;
68484;SDS011;55472;50.060;21.960;2023-02-28T12:17:58;10.47;;;5.00;;
68484;SDS011;55472;50.060;21.960;2023-02-28T12:20:53;13.10;;;5.93;;
68484;SDS011;55472;50.060;21.960;2023-02-28T12:26:38;13.23;;;5.18;;
68484;SDS011;55472;50.060;21.960;2023-02-28T12:29:10;14.25;;;5.10;;
68484;SDS011;55472;50.060;21.960;2023-02-28T12:34:38;12.55;;;5.30;;
68484;SDS011;55472;50.060;21.960;2023-02-28T12:37:14;13.05;;;6.03;;
68484;SDS011;55472;50.060;21.960;2023-02-28T12:39:53;13.80;;;5.43;;
68484;SDS011;55472;50.060;21.960;2023-02-28T12:42:32;14.32;;;4.95;;
68484;SDS011;55472;50.060;21.960;2023-02-28T12:45:08;13.67;;;6.40;;
68484;SDS011;55472;50.060;21.960;2023-02-28T12:47:42;12.55;;;5.20;;
68484;SDS011;55472;50.060;21.960;2023-02-28T12:50:10;13.13;;;6.10;;
68484;SDS011;55472;50.060;21.960;2023-02-28T13:10:12;14.20;;;5.22;;
68484;SDS011;55472;50.060;21.960;2023-02-28T13:12:51;12.60;;;4.73;;
68484;SDS011;55472;50.060;21.960;2023-02-28T13:15:21;13.07;;;5.43;;
68484;SDS011;55472;50.060;21.960;2023-02-28T13:17:54;21.52;;;8.40;;
68484;SDS011;55472;50.060;21.960;2023-02-28T13:20:24;14.02;;;5.88;;
68484;SDS011;55472;50.060;21.960;2023-02-28T13:22:55;13.27;;;4.95;;
68484;SDS011;55472;50.060;21.960;2023-02-28T13:28:13;12.85;;;5.07;;
68484;SDS011;55472;50.060;21.960;2023-02-28T13:31:14;12.00;;;5.05;;
68484;SDS011;55472;50.060;21.960;2023-02-28T13:34:26;9.48;;;4.35;;
68484;SDS011;55472;50.060;21.960;2023-02-28T13:36:38;13.40;;;4.63;;
68484;SDS011;55472;50.060;21.960;2023-02-28T13:55:53;9.45;;;3.80;;
68484;SDS011;55472;50.060;21.960;2023-02-28T14:04:49;14.07;;;5.07;;
68484;SDS011;55472;50.060;21.960;2023-02-28T14:07:28;16.70;;;8.20;;
68484;SDS011;55472;50.060;21.960;2023-02-28T14:10:04;10.45;;;4.75;;
68484;SDS011;55472;50.060;21.960;2023-02-28T14:20:58;17.20;;;6.30;;
68484;SDS011;55472;50.060;21.960;2023-02-28T14:35:20;28.10;;;7.30;;
68484;SDS011;55472;50.060;21.960;2023-02-28T14:37:51;20.70;;;5.75;;
68484;SDS011;55472;50.060;21.960;2023-02-28T14:40:30;18.40;;;5.28;;
68484;SDS011;55472;50.060;21.960;2023-02-28T14:43:00;9.43;;;3.78;;
68484;SDS011;55472;50.060;21.960;2023-02-28T14:45:30;9.23;;;3.13;;
68484;SDS011;55472;50.060;21.960;2023-02-28T14:48:01;20.10;;;5.10;;
68484;SDS011;55472;50.060;21.960;2023-02-28T14:50:31;13.23;;;4.95;;
68484;SDS011;55472;50.060;21.960;2023-02-28T14:53:02;13.73;;;5.15;;
68484;SDS011;55472;50.060;21.960;2023-02-28T14:55:30;18.20;;;5.70;;
68484;SDS011;55472;50.060;21.960;2023-02-28T14:58:01;19.08;;;5.70;;
68484;SDS011;55472;50.060;21.960;2023-02-28T15:00:33;20.03;;;6.47;;
68484;SDS011;55472;50.060;21.960;2023-02-28T15:06:12;16.83;;;5.70;;
68484;SDS011;55472;50.060;21.960;2023-02-28T15:08:41;19.88;;;6.50;;
68484;SDS011;55472;50.060;21.960;2023-02-28T15:11:08;21.85;;;6.95;;
68484;SDS011;55472;50.060;21.960;2023-02-28T15:13:47;15.43;;;5.10;;
68484;SDS011;55472;50.060;21.960;2023-02-28T15:16:22;11.52;;;4.32;;
68484;SDS011;55472;50.060;21.960;2023-02-28T15:19:13;12.43;;;4.10;;
68484;SDS011;55472;50.060;21.960;2023-02-28T15:22:10;19.92;;;6.40;;
68484;SDS011;55472;50.060;21.960;2023-02-28T15:24:43;27.17;;;7.38;;
68484;SDS011;55472;50.060;21.960;2023-02-28T15:27:29;19.10;;;5.97;;
68484;SDS011;55472;50.060;21.960;2023-02-28T15:29:59;14.23;;;5.68;;
68484;SDS011;55472;50.060;21.960;2023-02-28T15:32:37;21.83;;;6.72;;
68484;SDS011;55472;50.060;21.960;2023-02-28T15:35:25;18.77;;;5.00;;
68484;SDS011;55472;50.060;21.960;2023-02-28T15:38:03;12.05;;;4.38;;
68484;SDS011;55472;50.060;21.960;2023-02-28T15:43:31;15.50;;;4.35;;
68484;SDS011;55472;50.060;21.960;2023-02-28T15:51:20;13.38;;;4.82;;
68484;SDS011;55472;50.060;21.960;2023-02-28T15:54:07;16.40;;;5.40;;
68484;SDS011;55472;50.060;21.960;2023-02-28T15:56:53;13.93;;;5.60;;
68484;SDS011;55472;50.060;21.960;2023-02-28T15:59:23;13.98;;;5.15;;
68484;SDS011;55472;50.060;21.960;2023-02-28T16:02:15;13.88;;;5.32;;
68484;SDS011;55472;50.060;21.960;2023-02-28T16:07:31;20.20;;;6.70;;
68484;SDS011;55472;50.060;21.960;2023-02-28T16:10:00;17.15;;;5.75;;
68484;SDS011;55472;50.060;21.960;2023-02-28T16:12:30;17.55;;;5.57;;
68484;SDS011;55472;50.060;21.960;2023-02-28T16:14:59;17.38;;;5.88;;
68484;SDS011;55472;50.060;21.960;2023-02-28T16:17:35;21.05;;;7.22;;
68484;SDS011;55472;50.060;21.960;2023-02-28T16:22:52;21.95;;;7.82;;
68484;SDS011;55472;50.060;21.960;2023-02-28T16:25:29;22.40;;;8.27;;
68484;SDS011;55472;50.060;21.960;2023-02-28T16:28:09;24.13;;;8.63;;
68484;SDS011;55472;50.060;21.960;2023-02-28T16:30:45;22.23;;;7.57;;
68484;SDS011;55472;50.060;21.960;2023-02-28T16:33:11;23.50;;;8.40;;
68484;SDS011;55472;50.060;21.960;2023-02-28T16:35:38;23.52;;;7.70;;
68484;SDS011;55472;50.060;21.960;2023-02-28T16:38:04;23.95;;;7.85;;
68484;SDS011;55472;50.060;21.960;2023-02-28T16:40:33;65.60;;;16.83;;
68484;SDS011;55472;50.060;21.960;2023-02-28T16:43:01;75.07;;;23.20;;
68484;SDS011;55472;50.060;21.960;2023-02-28T16:45:46;83.50;;;26.00;;
68484;SDS011;55472;50.060;21.960;2023-02-28T16:48:14;92.00;;;28.98;;
68484;SDS011;55472;50.060;21.960;2023-02-28T16:50:42;96.90;;;27.67;;
68484;SDS011;55472;50.060;21.960;2023-02-28T16:53:11;74.55;;;22.88;;
68484;SDS011;55472;50.060;21.960;2023-02-28T16:55:37;80.53;;;22.13;;
68484;SDS011;55472;50.060;21.960;2023-02-28T16:58:03;77.50;;;21.77;;
68484;SDS011;55472;50.060;21.960;2023-02-28T17:00:30;98.93;;;29.63;;
68484;SDS011;55472;50.060;21.960;2023-02-28T17:02:58;85.05;;;26.38;;
68484;SDS011;55472;50.060;21.960;2023-02-28T17:05:24;59.28;;;18.67;;
68484;SDS011;55472;50.060;21.960;2023-02-28T17:07:53;60.85;;;17.58;;
68484;SDS011;55472;50.060;21.960;2023-02-28T17:10:22;63.30;;;19.50;;
68484;SDS011;55472;50.060;21.960;2023-02-28T17:12:51;61.03;;;19.85;;
68484;SDS011;55472;50.060;21.960;2023-02-28T17:15:18;118.50;;;32.03;;
68484;SDS011;55472;50.060;21.960;2023-02-28T17:17:45;304.30;;;69.10;;
68484;SDS011;55472;50.060;21.960;2023-02-28T17:20:15;201.43;;;53.35;;
68484;SDS011;55472;50.060;21.960;2023-02-28T17:22:48;159.17;;;43.70;;
68484;SDS011;55472;50.060;21.960;2023-02-28T17:25:18;129.35;;;36.47;;
68484;SDS011;55472;50.060;21.960;2023-02-28T17:27:45;120.60;;;36.38;;
68484;SDS011;55472;50.060;21.960;2023-02-28T17:30:16;106.20;;;34.05;;
68484;SDS011;55472;50.060;21.960;2023-02-28T17:32:49;124.93;;;35.22;;
68484;SDS011;55472;50.060;21.960;2023-02-28T17:35:16;112.30;;;36.13;;
68484;SDS011;55472;50.060;21.960;2023-02-28T17:37:42;116.10;;;34.80;;
68484;SDS011;55472;50.060;21.960;2023-02-28T17:40:15;112.93;;;34.47;;
68484;SDS011;55472;50.060;21.960;2023-02-28T17:42:47;116.95;;;36.08;;
68484;SDS011;55472;50.060;21.960;2023-02-28T17:45:14;145.45;;;44.17;;
68484;SDS011;55472;50.060;21.960;2023-02-28T17:47:41;145.50;;;43.80;;